sensor_id;sensor_type;location;lat;lon;timestamp;P1;durP1;ratioP1;P2;durP2;ratioP2
6665;SDS011;3369;49.906;8.598;2022-08-19T00:01:24;11.17;;;10.17;;
6665;SDS011;3369;49.906;8.598;2022-08-19T00:03:51;12.10;;;10.97;;
6665;SDS011;3369;49.906;8.598;2022-08-19T00:06:16;10.63;;;9.70;;
6665;SDS011;3369;49.906;8.598;2022-08-19T00:08:42;9.90;;;8.90;;
6665;SDS011;3369;49.906;8.598;2022-08-19T00:11:08;9.70;;;8.80;;
6665;SDS011;3369;49.906;8.598;2022-08-19T00:13:34;9.87;;;8.97;;
6665;SDS011;3369;49.906;8.598;2022-08-19T00:16:00;9.70;;;8.80;;
6665;SDS011;3369;49.906;8.598;2022-08-19T00:18:27;9.53;;;8.73;;
6665;SDS011;3369;49.906;8.598;2022-08-19T00:20:53;9.13;;;8.43;;
6665;SDS011;3369;49.906;8.598;2022-08-19T00:23:18;8.80;;;8.00;;
6665;SDS011;3369;49.906;8.598;2022-08-19T00:25:44;8.70;;;8.00;;
6665;SDS011;3369;49.906;8.598;2022-08-19T00:28:10;9.40;;;8.60;;
6665;SDS011;3369;49.906;8.598;2022-08-19T00:30:36;8.73;;;8.03;;
6665;SDS011;3369;49.906;8.598;2022-08-19T00:33:02;8.90;;;8.10;;
6665;SDS011;3369;49.906;8.598;2022-08-19T00:35:28;8.97;;;8.17;;
6665;SDS011;3369;49.906;8.598;2022-08-19T00:37:54;9.93;;;9.03;;
6665;SDS011;3369;49.906;8.598;2022-08-19T00:40:20;8.80;;;8.00;;
6665;SDS011;3369;49.906;8.598;2022-08-19T00:42:46;8.50;;;7.77;;
6665;SDS011;3369;49.906;8.598;2022-08-19T00:45:14;8.60;;;7.90;;
6665;SDS011;3369;49.906;8.598;2022-08-19T00:47:42;8.30;;;7.60;;
6665;SDS011;3369;49.906;8.598;2022-08-19T00:50:09;8.87;;;8.17;;
6665;SDS011;3369;49.906;8.598;2022-08-19T00:52:38;8.38;;;7.63;;
6665;SDS011;3369;49.906;8.598;2022-08-19T00:55:10;8.13;;;7.43;;
6665;SDS011;3369;49.906;8.598;2022-08-19T00:57:50;8.70;;;7.90;;
6665;SDS011;3369;49.906;8.598;2022-08-19T01:00:19;8.77;;;8.07;;
6665;SDS011;3369;49.906;8.598;2022-08-19T01:02:47;8.70;;;7.90;;
6665;SDS011;3369;49.906;8.598;2022-08-19T01:05:14;9.27;;;8.47;;
6665;SDS011;3369;49.906;8.598;2022-08-19T01:07:46;8.50;;;7.80;;
6665;SDS011;3369;49.906;8.598;2022-08-19T01:10:15;8.90;;;8.10;;
6665;SDS011;3369;49.906;8.598;2022-08-19T01:12:44;9.00;;;8.20;;
6665;SDS011;3369;49.906;8.598;2022-08-19T01:15:11;9.53;;;8.63;;
6665;SDS011;3369;49.906;8.598;2022-08-19T01:17:40;8.60;;;7.90;;
6665;SDS011;3369;49.906;8.598;2022-08-19T01:20:09;8.63;;;7.93;;
6665;SDS011;3369;49.906;8.598;2022-08-19T01:22:47;8.43;;;7.72;;
6665;SDS011;3369;49.906;8.598;2022-08-19T01:25:16;9.83;;;8.93;;
6665;SDS011;3369;49.906;8.598;2022-08-19T01:27:44;8.23;;;7.53;;
6665;SDS011;3369;49.906;8.598;2022-08-19T01:30:17;8.63;;;7.83;;
6665;SDS011;3369;49.906;8.598;2022-08-19T01:32:47;8.27;;;7.57;;
6665;SDS011;3369;49.906;8.598;2022-08-19T01:35:14;7.85;;;7.25;;
6665;SDS011;3369;49.906;8.598;2022-08-19T01:57:18;9.03;;;8.23;;
6665;SDS011;3369;49.906;8.598;2022-08-19T01:59:44;8.73;;;8.03;;
6665;SDS011;3369;49.906;8.598;2022-08-19T02:02:11;8.47;;;7.73;;
6665;SDS011;3369;49.906;8.598;2022-08-19T02:04:36;9.00;;;8.10;;
6665;SDS011;3369;49.906;8.598;2022-08-19T02:07:03;9.37;;;8.47;;
6665;SDS011;3369;49.906;8.598;2022-08-19T02:09:30;9.03;;;8.23;;
6665;SDS011;3369;49.906;8.598;2022-08-19T02:11:57;8.37;;;7.67;;
6665;SDS011;3369;49.906;8.598;2022-08-19T02:14:22;9.30;;;8.50;;
6665;SDS011;3369;49.906;8.598;2022-08-19T02:16:48;8.83;;;8.03;;
6665;SDS011;3369;49.906;8.598;2022-08-19T02:19:14;8.87;;;8.07;;
6665;SDS011;3369;49.906;8.598;2022-08-19T02:21:39;9.73;;;8.87;;
6665;SDS011;3369;49.906;8.598;2022-08-19T02:24:05;9.80;;;8.90;;
6665;SDS011;3369;49.906;8.598;2022-08-19T02:26:31;10.70;;;9.70;;
6665;SDS011;3369;49.906;8.598;2022-08-19T02:28:58;10.07;;;9.17;;
6665;SDS011;3369;49.906;8.598;2022-08-19T02:31:24;11.50;;;10.40;;
6665;SDS011;3369;49.906;8.598;2022-08-19T02:33:50;10.13;;;9.17;;
6665;SDS011;3369;49.906;8.598;2022-08-19T02:36:17;10.50;;;9.50;;
6665;SDS011;3369;49.906;8.598;2022-08-19T02:38:43;9.93;;;9.03;;
6665;SDS011;3369;49.906;8.598;2022-08-19T02:41:19;9.33;;;8.50;;
6665;SDS011;3369;49.906;8.598;2022-08-19T02:43:47;9.60;;;8.70;;
6665;SDS011;3369;49.906;8.598;2022-08-19T02:46:21;10.57;;;9.57;;
6665;SDS011;3369;49.906;8.598;2022-08-19T02:48:53;10.00;;;9.10;;
6665;SDS011;3369;49.906;8.598;2022-08-19T02:51:23;10.23;;;9.33;;
6665;SDS011;3369;49.906;8.598;2022-08-19T02:53:51;10.73;;;9.73;;
6665;SDS011;3369;49.906;8.598;2022-08-19T02:56:17;9.90;;;9.00;;
6665;SDS011;3369;49.906;8.598;2022-08-19T02:58:44;10.93;;;9.83;;
6665;SDS011;3369;49.906;8.598;2022-08-19T03:01:10;9.73;;;8.83;;
6665;SDS011;3369;49.906;8.598;2022-08-19T03:03:36;10.03;;;9.10;;
6665;SDS011;3369;49.906;8.598;2022-08-19T03:06:09;10.37;;;9.43;;
6665;SDS011;3369;49.906;8.598;2022-08-19T03:08:41;9.67;;;8.87;;
6665;SDS011;3369;49.906;8.598;2022-08-19T03:11:21;9.83;;;8.93;;
6665;SDS011;3369;49.906;8.598;2022-08-19T03:13:49;9.10;;;8.30;;
6665;SDS011;3369;49.906;8.598;2022-08-19T03:16:16;8.65;;;7.85;;
6665;SDS011;3369;49.906;8.598;2022-08-19T03:18:43;9.40;;;8.60;;
6665;SDS011;3369;49.906;8.598;2022-08-19T03:21:10;9.37;;;8.57;;
6665;SDS011;3369;49.906;8.598;2022-08-19T03:23:43;8.57;;;7.87;;
6665;SDS011;3369;49.906;8.598;2022-08-19T03:26:10;9.97;;;9.07;;
6665;SDS011;3369;49.906;8.598;2022-08-19T03:28:35;10.03;;;9.13;;
6665;SDS011;3369;49.906;8.598;2022-08-19T03:31:06;10.23;;;9.37;;
6665;SDS011;3369;49.906;8.598;2022-08-19T03:33:35;10.63;;;9.63;;
6665;SDS011;3369;49.906;8.598;2022-08-19T03:38:27;9.50;;;8.70;;
6665;SDS011;3369;49.906;8.598;2022-08-19T03:40:53;9.57;;;8.67;;
6665;SDS011;3369;49.906;8.598;2022-08-19T03:43:18;9.70;;;8.80;;
6665;SDS011;3369;49.906;8.598;2022-08-19T03:45:44;9.67;;;8.50;;
6665;SDS011;3369;49.906;8.598;2022-08-19T03:48:10;9.87;;;8.87;;
6665;SDS011;3369;49.906;8.598;2022-08-19T03:50:39;10.50;;;9.50;;
6665;SDS011;3369;49.906;8.598;2022-08-19T03:53:05;10.80;;;9.80;;
6665;SDS011;3369;49.906;8.598;2022-08-19T03:55:32;10.70;;;9.70;;
6665;SDS011;3369;49.906;8.598;2022-08-19T03:57:57;9.33;;;8.53;;
6665;SDS011;3369;49.906;8.598;2022-08-19T04:00:23;10.60;;;9.70;;
6665;SDS011;3369;49.906;8.598;2022-08-19T04:02:49;10.03;;;9.13;;
6665;SDS011;3369;49.906;8.598;2022-08-19T04:05:14;11.17;;;10.07;;
6665;SDS011;3369;49.906;8.598;2022-08-19T04:07:40;10.27;;;9.27;;
6665;SDS011;3369;49.906;8.598;2022-08-19T04:10:06;9.77;;;8.87;;
6665;SDS011;3369;49.906;8.598;2022-08-19T04:12:31;11.63;;;10.53;;
6665;SDS011;3369;49.906;8.598;2022-08-19T04:14:57;9.80;;;8.90;;
6665;SDS011;3369;49.906;8.598;2022-08-19T04:17:23;10.20;;;9.23;;
6665;SDS011;3369;49.906;8.598;2022-08-19T04:19:49;9.50;;;8.70;;
6665;SDS011;3369;49.906;8.598;2022-08-19T04:22:15;9.60;;;8.70;;
6665;SDS011;3369;49.906;8.598;2022-08-19T04:24:40;9.10;;;8.30;;
6665;SDS011;3369;49.906;8.598;2022-08-19T04:27:06;9.87;;;8.93;;
6665;SDS011;3369;49.906;8.598;2022-08-19T04:29:32;9.10;;;8.27;;
6665;SDS011;3369;49.906;8.598;2022-08-19T04:31:58;10.80;;;9.80;;
6665;SDS011;3369;49.906;8.598;2022-08-19T04:34:25;10.13;;;9.13;;
6665;SDS011;3369;49.906;8.598;2022-08-19T04:36:52;10.67;;;9.67;;
6665;SDS011;3369;49.906;8.598;2022-08-19T04:39:21;10.37;;;9.37;;
6665;SDS011;3369;49.906;8.598;2022-08-19T04:42:10;11.03;;;10.00;;
6665;SDS011;3369;49.906;8.598;2022-08-19T04:44:54;10.07;;;9.07;;
6665;SDS011;3369;49.906;8.598;2022-08-19T04:47:20;11.50;;;10.40;;
6665;SDS011;3369;49.906;8.598;2022-08-19T04:49:45;10.90;;;9.90;;
6665;SDS011;3369;49.906;8.598;2022-08-19T04:52:11;10.90;;;9.80;;
6665;SDS011;3369;49.906;8.598;2022-08-19T04:54:37;10.87;;;9.87;;
6665;SDS011;3369;49.906;8.598;2022-08-19T04:57:03;11.37;;;10.27;;
6665;SDS011;3369;49.906;8.598;2022-08-19T04:59:30;10.47;;;9.47;;
6665;SDS011;3369;49.906;8.598;2022-08-19T05:01:55;10.63;;;9.63;;
6665;SDS011;3369;49.906;8.598;2022-08-19T05:04:21;10.33;;;9.43;;
6665;SDS011;3369;49.906;8.598;2022-08-19T05:06:47;10.23;;;9.33;;
6665;SDS011;3369;49.906;8.598;2022-08-19T05:09:14;11.80;;;10.60;;
6665;SDS011;3369;49.906;8.598;2022-08-19T05:11:40;11.57;;;10.47;;
6665;SDS011;3369;49.906;8.598;2022-08-19T05:14:06;12.07;;;10.87;;
6665;SDS011;3369;49.906;8.598;2022-08-19T05:16:33;11.67;;;10.57;;
6665;SDS011;3369;49.906;8.598;2022-08-19T05:18:59;11.33;;;10.23;;
6665;SDS011;3369;49.906;8.598;2022-08-19T05:21:43;10.50;;;9.50;;
6665;SDS011;3369;49.906;8.598;2022-08-19T05:24:28;11.93;;;10.83;;
6665;SDS011;3369;49.906;8.598;2022-08-19T05:26:55;10.53;;;9.63;;
6665;SDS011;3369;49.906;8.598;2022-08-19T05:29:25;10.37;;;9.47;;
6665;SDS011;3369;49.906;8.598;2022-08-19T05:31:52;10.90;;;9.90;;
6665;SDS011;3369;49.906;8.598;2022-08-19T05:34:20;10.63;;;9.63;;
6665;SDS011;3369;49.906;8.598;2022-08-19T05:36:48;10.40;;;9.50;;
6665;SDS011;3369;49.906;8.598;2022-08-19T05:39:16;11.13;;;10.13;;
6665;SDS011;3369;49.906;8.598;2022-08-19T05:41:45;11.00;;;10.00;;
6665;SDS011;3369;49.906;8.598;2022-08-19T05:44:14;10.63;;;9.73;;
6665;SDS011;3369;49.906;8.598;2022-08-19T05:46:42;10.70;;;9.80;;
6665;SDS011;3369;49.906;8.598;2022-08-19T05:49:11;10.93;;;9.83;;
6665;SDS011;3369;49.906;8.598;2022-08-19T05:51:38;11.67;;;10.57;;
6665;SDS011;3369;49.906;8.598;2022-08-19T05:54:04;11.63;;;10.53;;
6665;SDS011;3369;49.906;8.598;2022-08-19T05:56:33;11.50;;;10.37;;
6665;SDS011;3369;49.906;8.598;2022-08-19T05:59:03;12.30;;;11.17;;
6665;SDS011;3369;49.906;8.598;2022-08-19T06:01:35;12.30;;;11.20;;
6665;SDS011;3369;49.906;8.598;2022-08-19T06:04:02;11.13;;;10.13;;
6665;SDS011;3369;49.906;8.598;2022-08-19T06:06:28;11.23;;;10.23;;
6665;SDS011;3369;49.906;8.598;2022-08-19T06:08:54;12.13;;;11.03;;
6665;SDS011;3369;49.906;8.598;2022-08-19T06:11:21;12.17;;;11.07;;
6665;SDS011;3369;49.906;8.598;2022-08-19T06:13:50;11.30;;;10.40;;
6665;SDS011;3369;49.906;8.598;2022-08-19T06:16:21;12.20;;;11.10;;
6665;SDS011;3369;49.906;8.598;2022-08-19T06:18:51;13.07;;;11.87;;
6665;SDS011;3369;49.906;8.598;2022-08-19T06:21:19;11.60;;;10.33;;
6665;SDS011;3369;49.906;8.598;2022-08-19T06:23:49;12.57;;;11.37;;
6665;SDS011;3369;49.906;8.598;2022-08-19T06:26:16;11.77;;;10.67;;
6665;SDS011;3369;49.906;8.598;2022-08-19T06:28:43;11.33;;;10.33;;
6665;SDS011;3369;49.906;8.598;2022-08-19T06:31:15;12.53;;;11.37;;
6665;SDS011;3369;49.906;8.598;2022-08-19T06:33:43;11.37;;;10.40;;
6665;SDS011;3369;49.906;8.598;2022-08-19T06:39:02;11.47;;;10.20;;
6665;SDS011;3369;49.906;8.598;2022-08-19T06:41:36;10.90;;;9.90;;
6665;SDS011;3369;49.906;8.598;2022-08-19T06:44:05;11.63;;;10.43;;
6665;SDS011;3369;49.906;8.598;2022-08-19T06:46:31;12.10;;;10.97;;
6665;SDS011;3369;49.906;8.598;2022-08-19T06:48:57;11.60;;;10.40;;
6665;SDS011;3369;49.906;8.598;2022-08-19T06:51:23;11.33;;;10.00;;
6665;SDS011;3369;49.906;8.598;2022-08-19T06:53:51;10.87;;;9.80;;
6665;SDS011;3369;49.906;8.598;2022-08-19T06:56:19;9.43;;;8.63;;
6665;SDS011;3369;49.906;8.598;2022-08-19T06:58:47;11.10;;;9.60;;
6665;SDS011;3369;49.906;8.598;2022-08-19T07:01:16;9.13;;;8.23;;
6665;SDS011;3369;49.906;8.598;2022-08-19T07:03:41;11.17;;;9.20;;
6665;SDS011;3369;49.906;8.598;2022-08-19T07:06:08;9.53;;;8.63;;
6665;SDS011;3369;49.906;8.598;2022-08-19T07:08:39;9.33;;;8.53;;
6665;SDS011;3369;49.906;8.598;2022-08-19T07:11:06;9.53;;;8.60;;
6665;SDS011;3369;49.906;8.598;2022-08-19T07:13:33;9.70;;;8.70;;
6665;SDS011;3369;49.906;8.598;2022-08-19T07:16:07;9.13;;;8.20;;
6665;SDS011;3369;49.906;8.598;2022-08-19T07:18:38;8.67;;;7.53;;
6665;SDS011;3369;49.906;8.598;2022-08-19T07:21:05;8.55;;;7.65;;
6665;SDS011;3369;49.906;8.598;2022-08-19T07:23:36;7.90;;;7.10;;
6665;SDS011;3369;49.906;8.598;2022-08-19T07:26:09;7.25;;;6.60;;
6665;SDS011;3369;49.906;8.598;2022-08-19T07:28:42;7.37;;;6.63;;
6665;SDS011;3369;49.906;8.598;2022-08-19T07:31:13;7.28;;;6.65;;
6665;SDS011;3369;49.906;8.598;2022-08-19T07:33:43;6.90;;;6.20;;
6665;SDS011;3369;49.906;8.598;2022-08-19T07:36:11;6.70;;;6.10;;
6665;SDS011;3369;49.906;8.598;2022-08-19T07:38:38;6.32;;;5.72;;
6665;SDS011;3369;49.906;8.598;2022-08-19T07:41:05;9.52;;;6.07;;
6665;SDS011;3369;49.906;8.598;2022-08-19T07:43:32;6.53;;;5.90;;
6665;SDS011;3369;49.906;8.598;2022-08-19T07:45:58;6.27;;;5.67;;
6665;SDS011;3369;49.906;8.598;2022-08-19T07:48:24;5.90;;;5.38;;
6665;SDS011;3369;49.906;8.598;2022-08-19T07:50:52;5.75;;;5.20;;
6665;SDS011;3369;49.906;8.598;2022-08-19T07:53:22;5.47;;;5.05;;
6665;SDS011;3369;49.906;8.598;2022-08-19T07:55:49;6.05;;;5.55;;
6665;SDS011;3369;49.906;8.598;2022-08-19T07:58:16;5.82;;;5.18;;
6665;SDS011;3369;49.906;8.598;2022-08-19T08:00:45;5.15;;;4.65;;
6665;SDS011;3369;49.906;8.598;2022-08-19T08:03:13;5.05;;;4.55;;
6665;SDS011;3369;49.906;8.598;2022-08-19T08:05:40;5.65;;;5.15;;
6665;SDS011;3369;49.906;8.598;2022-08-19T08:08:25;5.65;;;4.90;;
6665;SDS011;3369;49.906;8.598;2022-08-19T08:11:09;4.90;;;4.50;;
6665;SDS011;3369;49.906;8.598;2022-08-19T08:13:35;5.30;;;4.80;;
6665;SDS011;3369;49.906;8.598;2022-08-19T08:16:02;5.30;;;4.80;;
6665;SDS011;3369;49.906;8.598;2022-08-19T08:18:28;4.70;;;4.30;;
6665;SDS011;3369;49.906;8.598;2022-08-19T08:20:55;5.97;;;4.20;;
6665;SDS011;3369;49.906;8.598;2022-08-19T08:23:22;5.65;;;4.55;;
6665;SDS011;3369;49.906;8.598;2022-08-19T08:25:50;4.30;;;3.95;;
6665;SDS011;3369;49.906;8.598;2022-08-19T08:28:17;4.13;;;3.83;;
6665;SDS011;3369;49.906;8.598;2022-08-19T08:30:43;4.57;;;4.22;;
6665;SDS011;3369;49.906;8.598;2022-08-19T08:33:12;4.22;;;3.83;;
6665;SDS011;3369;49.906;8.598;2022-08-19T08:35:39;4.65;;;4.13;;
6665;SDS011;3369;49.906;8.598;2022-08-19T08:38:06;3.95;;;3.65;;
6665;SDS011;3369;49.906;8.598;2022-08-19T08:43:22;4.30;;;3.92;;
6665;SDS011;3369;49.906;8.598;2022-08-19T08:46:11;3.90;;;3.63;;
6665;SDS011;3369;49.906;8.598;2022-08-19T08:48:53;3.92;;;3.60;;
6665;SDS011;3369;49.906;8.598;2022-08-19T08:51:25;3.45;;;3.25;;
6665;SDS011;3369;49.906;8.598;2022-08-19T08:53:54;3.50;;;3.20;;
6665;SDS011;3369;49.906;8.598;2022-08-19T08:56:20;4.03;;;3.63;;
6665;SDS011;3369;49.906;8.598;2022-08-19T08:58:58;4.10;;;3.75;;
6665;SDS011;3369;49.906;8.598;2022-08-19T09:01:27;4.88;;;4.38;;
6665;SDS011;3369;49.906;8.598;2022-08-19T09:03:53;4.57;;;4.07;;
6665;SDS011;3369;49.906;8.598;2022-08-19T09:14:52;5.18;;;4.30;;
6665;SDS011;3369;49.906;8.598;2022-08-19T09:17:23;5.30;;;4.28;;
6665;SDS011;3369;49.906;8.598;2022-08-19T09:22:54;4.55;;;4.10;;
6665;SDS011;3369;49.906;8.598;2022-08-19T09:25:20;4.75;;;4.35;;
6665;SDS011;3369;49.906;8.598;2022-08-19T09:27:47;4.75;;;4.32;;
6665;SDS011;3369;49.906;8.598;2022-08-19T09:30:16;6.32;;;4.10;;
6665;SDS011;3369;49.906;8.598;2022-08-19T09:32:43;5.30;;;4.47;;
6665;SDS011;3369;49.906;8.598;2022-08-19T09:35:10;6.00;;;5.03;;
6665;SDS011;3369;49.906;8.598;2022-08-19T09:37:37;4.35;;;4.05;;
6665;SDS011;3369;49.906;8.598;2022-08-19T09:40:03;4.90;;;4.00;;
6665;SDS011;3369;49.906;8.598;2022-08-19T09:42:30;4.70;;;4.13;;
6665;SDS011;3369;49.906;8.598;2022-08-19T09:44:56;4.43;;;4.03;;
6665;SDS011;3369;49.906;8.598;2022-08-19T09:47:21;4.45;;;4.15;;
6665;SDS011;3369;49.906;8.598;2022-08-19T09:49:47;4.43;;;4.13;;
6665;SDS011;3369;49.906;8.598;2022-08-19T09:52:15;6.97;;;4.20;;
6665;SDS011;3369;49.906;8.598;2022-08-19T09:54:41;7.20;;;5.35;;
6665;SDS011;3369;49.906;8.598;2022-08-19T09:57:07;5.32;;;4.80;;
6665;SDS011;3369;49.906;8.598;2022-08-19T09:59:33;5.18;;;4.70;;
6665;SDS011;3369;49.906;8.598;2022-08-19T10:01:59;5.68;;;5.18;;
6665;SDS011;3369;49.906;8.598;2022-08-19T10:04:25;6.53;;;5.88;;
6665;SDS011;3369;49.906;8.598;2022-08-19T10:07:10;5.85;;;5.35;;
6665;SDS011;3369;49.906;8.598;2022-08-19T10:09:36;5.45;;;5.03;;
6665;SDS011;3369;49.906;8.598;2022-08-19T10:12:02;5.65;;;5.15;;
6665;SDS011;3369;49.906;8.598;2022-08-19T10:14:29;5.53;;;5.03;;
6665;SDS011;3369;49.906;8.598;2022-08-19T10:16:56;5.97;;;5.22;;
6665;SDS011;3369;49.906;8.598;2022-08-19T10:19:22;5.72;;;4.70;;
6665;SDS011;3369;49.906;8.598;2022-08-19T10:21:48;5.25;;;4.75;;
6665;SDS011;3369;49.906;8.598;2022-08-19T10:24:13;4.72;;;4.43;;
6665;SDS011;3369;49.906;8.598;2022-08-19T10:26:40;6.20;;;4.93;;
6665;SDS011;3369;49.906;8.598;2022-08-19T10:29:12;5.95;;;4.85;;
6665;SDS011;3369;49.906;8.598;2022-08-19T10:31:40;5.53;;;5.05;;
6665;SDS011;3369;49.906;8.598;2022-08-19T10:34:06;5.53;;;5.03;;
6665;SDS011;3369;49.906;8.598;2022-08-19T10:36:34;5.75;;;5.22;;
6665;SDS011;3369;49.906;8.598;2022-08-19T10:39:04;6.22;;;4.85;;
6665;SDS011;3369;49.906;8.598;2022-08-19T10:41:34;5.82;;;5.32;;
6665;SDS011;3369;49.906;8.598;2022-08-19T10:44:03;6.28;;;5.68;;
6665;SDS011;3369;49.906;8.598;2022-08-19T10:46:38;5.50;;;5.00;;
6665;SDS011;3369;49.906;8.598;2022-08-19T10:49:07;6.07;;;5.47;;
6665;SDS011;3369;49.906;8.598;2022-08-19T10:51:34;5.40;;;4.90;;
6665;SDS011;3369;49.906;8.598;2022-08-19T10:54:19;6.13;;;5.57;;
6665;SDS011;3369;49.906;8.598;2022-08-19T10:56:45;6.22;;;5.70;;
6665;SDS011;3369;49.906;8.598;2022-08-19T10:59:18;6.20;;;5.70;;
6665;SDS011;3369;49.906;8.598;2022-08-19T11:01:49;5.90;;;5.25;;
6665;SDS011;3369;49.906;8.598;2022-08-19T11:04:16;5.60;;;5.20;;
6665;SDS011;3369;49.906;8.598;2022-08-19T11:06:46;5.70;;;5.22;;
6665;SDS011;3369;49.906;8.598;2022-08-19T11:09:17;6.75;;;5.95;;
6665;SDS011;3369;49.906;8.598;2022-08-19T11:11:44;6.63;;;6.13;;
6665;SDS011;3369;49.906;8.598;2022-08-19T11:14:13;6.32;;;5.88;;
6665;SDS011;3369;49.906;8.598;2022-08-19T11:16:41;7.50;;;6.47;;
6665;SDS011;3369;49.906;8.598;2022-08-19T11:19:08;6.55;;;6.05;;
6665;SDS011;3369;49.906;8.598;2022-08-19T11:21:36;6.50;;;5.97;;
6665;SDS011;3369;49.906;8.598;2022-08-19T11:24:06;6.28;;;5.78;;
6665;SDS011;3369;49.906;8.598;2022-08-19T11:26:33;4.68;;;4.38;;
6665;SDS011;3369;49.906;8.598;2022-08-19T11:29:00;11.63;;;5.95;;
6665;SDS011;3369;49.906;8.598;2022-08-19T11:31:29;6.43;;;5.82;;
6665;SDS011;3369;49.906;8.598;2022-08-19T11:33:57;6.43;;;5.93;;
6665;SDS011;3369;49.906;8.598;2022-08-19T11:36:24;6.13;;;5.55;;
6665;SDS011;3369;49.906;8.598;2022-08-19T11:38:51;6.68;;;6.18;;
6665;SDS011;3369;49.906;8.598;2022-08-19T11:41:18;6.90;;;6.22;;
6665;SDS011;3369;49.906;8.598;2022-08-19T11:43:45;7.07;;;6.35;;
6665;SDS011;3369;49.906;8.598;2022-08-19T11:46:11;7.70;;;7.00;;
6665;SDS011;3369;49.906;8.598;2022-08-19T11:48:39;8.45;;;7.50;;
6665;SDS011;3369;49.906;8.598;2022-08-19T11:51:09;11.00;;;7.40;;
6665;SDS011;3369;49.906;8.598;2022-08-19T11:53:37;7.75;;;7.05;;
6665;SDS011;3369;49.906;8.598;2022-08-19T11:56:04;7.70;;;7.00;;
6665;SDS011;3369;49.906;8.598;2022-08-19T11:58:32;7.97;;;7.28;;
6665;SDS011;3369;49.906;8.598;2022-08-19T12:00:59;7.70;;;7.10;;
6665;SDS011;3369;49.906;8.598;2022-08-19T12:03:24;7.35;;;6.78;;
6665;SDS011;3369;49.906;8.598;2022-08-19T12:05:50;8.50;;;7.80;;
6665;SDS011;3369;49.906;8.598;2022-08-19T12:08:16;8.43;;;7.75;;
6665;SDS011;3369;49.906;8.598;2022-08-19T12:10:43;7.68;;;6.93;;
6665;SDS011;3369;49.906;8.598;2022-08-19T12:13:10;7.00;;;6.30;;
6665;SDS011;3369;49.906;8.598;2022-08-19T12:15:40;5.88;;;5.38;;
6665;SDS011;3369;49.906;8.598;2022-08-19T12:18:07;7.22;;;6.55;;
6665;SDS011;3369;49.906;8.598;2022-08-19T12:20:37;8.52;;;7.32;;
6665;SDS011;3369;49.906;8.598;2022-08-19T12:23:04;8.65;;;7.85;;
6665;SDS011;3369;49.906;8.598;2022-08-19T12:25:31;7.97;;;7.38;;
6665;SDS011;3369;49.906;8.598;2022-08-19T12:27:58;7.78;;;6.95;;
6665;SDS011;3369;49.906;8.598;2022-08-19T12:30:23;6.60;;;6.10;;
6665;SDS011;3369;49.906;8.598;2022-08-19T12:32:49;5.32;;;4.85;;
6665;SDS011;3369;49.906;8.598;2022-08-19T12:35:16;5.13;;;4.47;;
6665;SDS011;3369;49.906;8.598;2022-08-19T12:37:44;5.05;;;4.60;;
6665;SDS011;3369;49.906;8.598;2022-08-19T12:40:11;5.38;;;4.88;;
6665;SDS011;3369;49.906;8.598;2022-08-19T12:42:38;4.93;;;4.55;;
6665;SDS011;3369;49.906;8.598;2022-08-19T12:45:08;5.10;;;4.68;;
6665;SDS011;3369;49.906;8.598;2022-08-19T12:47:35;6.35;;;4.85;;
6665;SDS011;3369;49.906;8.598;2022-08-19T12:50:01;4.72;;;4.40;;
6665;SDS011;3369;49.906;8.598;2022-08-19T12:52:27;4.30;;;3.95;;
6665;SDS011;3369;49.906;8.598;2022-08-19T12:54:53;4.68;;;4.10;;
6665;SDS011;3369;49.906;8.598;2022-08-19T12:57:21;3.97;;;3.67;;
6665;SDS011;3369;49.906;8.598;2022-08-19T12:59:47;4.57;;;3.88;;
6665;SDS011;3369;49.906;8.598;2022-08-19T13:02:18;4.40;;;4.00;;
6665;SDS011;3369;49.906;8.598;2022-08-19T13:04:44;3.70;;;3.40;;
6665;SDS011;3369;49.906;8.598;2022-08-19T13:07:10;4.25;;;3.60;;
6665;SDS011;3369;49.906;8.598;2022-08-19T13:09:36;3.80;;;3.50;;
6665;SDS011;3369;49.906;8.598;2022-08-19T13:12:02;3.28;;;3.08;;
6665;SDS011;3369;49.906;8.598;2022-08-19T13:14:32;4.85;;;3.70;;
6665;SDS011;3369;49.906;8.598;2022-08-19T13:16:58;3.45;;;3.13;;
6665;SDS011;3369;49.906;8.598;2022-08-19T13:19:24;4.00;;;3.70;;
6665;SDS011;3369;49.906;8.598;2022-08-19T13:21:50;3.47;;;3.28;;
6665;SDS011;3369;49.906;8.598;2022-08-19T13:24:16;3.80;;;3.50;;
6665;SDS011;3369;49.906;8.598;2022-08-19T13:26:42;4.13;;;3.33;;
6665;SDS011;3369;49.906;8.598;2022-08-19T13:29:08;4.90;;;3.58;;
6665;SDS011;3369;49.906;8.598;2022-08-19T13:31:52;5.38;;;3.30;;
6665;SDS011;3369;49.906;8.598;2022-08-19T13:34:36;3.63;;;3.42;;
6665;SDS011;3369;49.906;8.598;2022-08-19T13:37:02;3.75;;;3.40;;
6665;SDS011;3369;49.906;8.598;2022-08-19T13:39:32;3.78;;;3.47;;
6665;SDS011;3369;49.906;8.598;2022-08-19T13:41:59;3.50;;;3.15;;
6665;SDS011;3369;49.906;8.598;2022-08-19T13:44:25;3.40;;;3.20;;
6665;SDS011;3369;49.906;8.598;2022-08-19T13:46:54;3.30;;;3.10;;
6665;SDS011;3369;49.906;8.598;2022-08-19T13:49:27;3.20;;;3.00;;
6665;SDS011;3369;49.906;8.598;2022-08-19T13:51:54;3.50;;;3.20;;
6665;SDS011;3369;49.906;8.598;2022-08-19T14:12:56;2.85;;;2.58;;
6665;SDS011;3369;49.906;8.598;2022-08-19T14:15:25;3.08;;;2.88;;
6665;SDS011;3369;49.906;8.598;2022-08-19T14:17:52;2.50;;;2.40;;
6665;SDS011;3369;49.906;8.598;2022-08-19T14:20:18;3.08;;;2.78;;
6665;SDS011;3369;49.906;8.598;2022-08-19T14:22:45;3.00;;;2.50;;
6665;SDS011;3369;49.906;8.598;2022-08-19T14:25:14;3.33;;;3.03;;
6665;SDS011;3369;49.906;8.598;2022-08-19T14:27:42;2.38;;;2.28;;
6665;SDS011;3369;49.906;8.598;2022-08-19T14:30:11;3.30;;;2.97;;
6665;SDS011;3369;49.906;8.598;2022-08-19T14:32:40;3.50;;;2.83;;
6665;SDS011;3369;49.906;8.598;2022-08-19T14:35:08;3.20;;;2.92;;
6665;SDS011;3369;49.906;8.598;2022-08-19T14:37:37;3.40;;;3.20;;
6665;SDS011;3369;49.906;8.598;2022-08-19T14:40:03;3.10;;;2.90;;
6665;SDS011;3369;49.906;8.598;2022-08-19T14:42:30;5.63;;;2.67;;
6665;SDS011;3369;49.906;8.598;2022-08-19T14:44:59;3.00;;;2.80;;
6665;SDS011;3369;49.906;8.598;2022-08-19T14:47:25;2.67;;;2.47;;
6665;SDS011;3369;49.906;8.598;2022-08-19T14:49:51;3.17;;;2.97;;
6665;SDS011;3369;49.906;8.598;2022-08-19T14:52:17;5.47;;;3.15;;
6665;SDS011;3369;49.906;8.598;2022-08-19T14:54:42;3.75;;;3.42;;
6665;SDS011;3369;49.906;8.598;2022-08-19T14:57:11;4.35;;;2.80;;
6665;SDS011;3369;49.906;8.598;2022-08-19T14:59:40;5.75;;;3.30;;
6665;SDS011;3369;49.906;8.598;2022-08-19T15:02:06;3.72;;;3.17;;
6665;SDS011;3369;49.906;8.598;2022-08-19T15:04:32;4.35;;;3.22;;
6665;SDS011;3369;49.906;8.598;2022-08-19T15:06:58;5.22;;;3.53;;
6665;SDS011;3369;49.906;8.598;2022-08-19T15:09:24;3.45;;;3.25;;
6665;SDS011;3369;49.906;8.598;2022-08-19T15:11:49;4.65;;;4.25;;
6665;SDS011;3369;49.906;8.598;2022-08-19T15:14:15;4.72;;;4.32;;
6665;SDS011;3369;49.906;8.598;2022-08-19T15:16:41;4.50;;;4.10;;
6665;SDS011;3369;49.906;8.598;2022-08-19T15:19:08;4.22;;;3.83;;
6665;SDS011;3369;49.906;8.598;2022-08-19T15:21:34;3.83;;;3.53;;
6665;SDS011;3369;49.906;8.598;2022-08-19T15:24:01;3.92;;;3.63;;
6665;SDS011;3369;49.906;8.598;2022-08-19T15:26:27;3.65;;;3.35;;
6665;SDS011;3369;49.906;8.598;2022-08-19T15:28:56;4.18;;;3.80;;
6665;SDS011;3369;49.906;8.598;2022-08-19T15:31:24;3.75;;;3.53;;
6665;SDS011;3369;49.906;8.598;2022-08-19T15:33:52;6.18;;;3.45;;
6665;SDS011;3369;49.906;8.598;2022-08-19T15:36:20;3.70;;;3.40;;
6665;SDS011;3369;49.906;8.598;2022-08-19T15:38:45;3.13;;;2.92;;
6665;SDS011;3369;49.906;8.598;2022-08-19T15:41:15;3.90;;;3.22;;
6665;SDS011;3369;49.906;8.598;2022-08-19T15:43:49;4.35;;;2.92;;
6665;SDS011;3369;49.906;8.598;2022-08-19T15:46:19;3.85;;;3.55;;
6665;SDS011;3369;49.906;8.598;2022-08-19T15:48:47;3.60;;;3.30;;
6665;SDS011;3369;49.906;8.598;2022-08-19T15:51:14;3.55;;;3.28;;
6665;SDS011;3369;49.906;8.598;2022-08-19T15:53:40;8.13;;;3.20;;
6665;SDS011;3369;49.906;8.598;2022-08-19T15:56:06;3.55;;;3.25;;
6665;SDS011;3369;49.906;8.598;2022-08-19T15:58:32;3.50;;;3.20;;
6665;SDS011;3369;49.906;8.598;2022-08-19T16:01:16;5.03;;;3.05;;
6665;SDS011;3369;49.906;8.598;2022-08-19T16:04:02;3.38;;;2.67;;
6665;SDS011;3369;49.906;8.598;2022-08-19T16:06:55;2.92;;;2.72;;
6665;SDS011;3369;49.906;8.598;2022-08-19T16:09:23;3.15;;;2.95;;
6665;SDS011;3369;49.906;8.598;2022-08-19T16:11:54;3.25;;;3.05;;
6665;SDS011;3369;49.906;8.598;2022-08-19T16:14:21;4.10;;;3.72;;